Portada
METAR-TAF:

METAR-TAF

Aeroports :

Fukuoka, Japó

latitud: 33-35N, longitud: 130-27E, altitud: 9 m

Observació

L'informe es va fer fa 31 minuts, a les 17:30 UTC
Vent 11 kt del Oest
Temperatura 13°C
Humitat 67%
Pressió 1011 hPa
Visibilitat 10 km o més
Escasses núvols a una alçada de 2500 ft
Núvols disperses a una alçada de 3000 ft
Cel ennuvolat a una alçada de 3300 ft

METAR: RJFF 211730Z AUTO 28011KT 9999 FEW025 SCT030 BKN033 13/07 Q1011 NOSIG

Hora: 03:01 (18:01 UTC)

Pronòstic

L'informe es va fer fa 54 minuts, a les 17:07 UTC
Pronòstic vàlid del 21 a les 18 UTC al 23 a les 00 UTC
Vent 11 kt del Nord/Nord-Oest
Visibilitat 10 km o més
Escasses núvols a una alçada de 3000 ft
Núvols disperses a una alçada de 4500 ft

TAF: RJFF 211707Z 2118/2300 34011KT 9999 FEW030 SCT045

Observacions i pronòstics meteorològics de més de 4000 aeroports (METAR i TAF).

Les estacions disponibles són els punts grocs i vermells al mapa.

Posi el ratolí al punt desitjat per veure el nom de l'estació.

Feu clic per veure les observacions i els pronòstics meteorològics.

Per canviar el mapa: feu clic els botons verds amb una creu de color negre per apropar; al botó verd amb un guió per allunyar la imatge; o en les fletxes verdes per a mapes adjacents.


METAR-TAF: